»·PEaware :: N75232 KBUR-KFUL

N75232 :: KBUR-KFUL

FLIGHT INFORMATION

Flight Status: Arrived
Operator: Privately registered:
United States
More flights under this callsign
Pilot: Daniel B. (28719)
Aircraft: CESSNA 172 SKYHAWK
(C172)
More flights by this aircraft type
Origin: KBUR Bob Hope-Burbank
United States
Destination: KFUL Fullerton Mun
United States
More flights between these airports :: More routes between these airports
Route: +
File this flight plan on PilotEdge
Remarks: CAT8
Altitude:
(Current/Filed)
3,500ft
Speed:
(Current/Filed)
0kts
Departed: 19-Apr-20 03:59 PM
Arrived: 19-Apr-20 04:31 PM
Distance/Time
Traveled:
27nm/0:32
Distance/Time
To Go:
Arrived

Flight Plot

Page will automatically refresh every two minutes.


Map Options




Map Legend


Flown Route
Filed Route
Departure Airport
Arrival Airport
Navaid (VOR, NDB)
Fix

Horizontal Profiles

Position Reports

Time Latitude Longitude Heading Altitude Ground
Speed
19-Apr-20 15:46 34.200500 -118.365995 182 728ft 0kts
19-Apr-20 15:47 34.200500 -118.365995 182 728ft 0kts
19-Apr-20 15:48 34.200500 -118.365995 182 728ft 0kts
19-Apr-20 15:49 34.200492 -118.365995 180 728ft 0kts
19-Apr-20 15:50 34.200219 -118.365993 177 727ft 0kts
19-Apr-20 15:51 34.199172 -118.365875 188 726ft 0kts
19-Apr-20 15:52 34.199099 -118.366179 271 726ft 8kts
19-Apr-20 15:53 34.198707 -118.368908 220 726ft 0kts
19-Apr-20 15:54 34.198707 -118.368908 220 726ft 0kts
19-Apr-20 15:55 34.198707 -118.368908 220 726ft 0kts
19-Apr-20 15:56 34.198646 -118.368939 193 726ft 0kts
19-Apr-20 15:56 34.198646 -118.368939 193 726ft 0kts
19-Apr-20 15:58 34.198631 -118.368944 195 726ft 2kts
19-Apr-20 15:59 34.197830 -118.360636 92 814ft 78kts
19-Apr-20 15:59 34.193817 -118.342141 162 1247ft 89kts
19-Apr-20 16:00 34.178669 -118.343637 182 1892ft 80kts
19-Apr-20 16:02 34.156957 -118.342178 175 2007ft 109kts
19-Apr-20 16:02 34.138853 -118.339329 162 2082ft 105kts
19-Apr-20 16:03 34.133568 -118.319220 92 2837ft 88kts
19-Apr-20 16:04 34.135894 -118.293705 82 2985ft 120kts
19-Apr-20 16:05 34.141555 -118.262942 76 2984ft 121kts
19-Apr-20 16:06 34.147963 -118.230154 80 3012ft 119kts
19-Apr-20 16:07 34.153737 -118.195650 79 3024ft 120kts
19-Apr-20 16:08 34.159873 -118.160755 85 3027ft 121kts
19-Apr-20 16:09 34.145653 -118.134863 134 3028ft 114kts
19-Apr-20 16:10 34.128439 -118.111352 132 3033ft 116kts
19-Apr-20 16:11 34.112360 -118.085860 127 3023ft 118kts
19-Apr-20 16:12 34.097915 -118.059801 123 3040ft 118kts
19-Apr-20 16:13 34.082683 -118.034378 142 3021ft 117kts
19-Apr-20 16:14 34.061891 -118.015642 147 3041ft 116kts
19-Apr-20 16:15 34.041187 -117.998454 146 3022ft 117kts
19-Apr-20 16:16 34.020443 -117.980866 146 2967ft 117kts
19-Apr-20 16:17 34.001038 -117.961837 140 2970ft 115kts
19-Apr-20 16:18 33.981918 -117.942676 146 3008ft 113kts
19-Apr-20 16:19 33.961513 -117.925701 149 3029ft 113kts
19-Apr-20 16:20 33.941509 -117.910430 151 3046ft 112kts
19-Apr-20 16:21 33.922282 -117.894869 144 3032ft 115kts
19-Apr-20 16:22 33.904235 -117.876289 138 3027ft 115kts
19-Apr-20 16:23 33.884264 -117.865555 229 2998ft 110kts
19-Apr-20 16:24 33.882301 -117.891262 262 2529ft 103kts
19-Apr-20 16:25 33.882842 -117.915348 274 1670ft 96kts
19-Apr-20 16:26 33.881260 -117.934388 248 1171ft 77kts
19-Apr-20 16:27 33.878324 -117.949158 249 877ft 65kts
19-Apr-20 16:28 33.875603 -117.962085 247 545ft 59kts
19-Apr-20 16:29 33.873051 -117.974616 250 135ft 58kts
19-Apr-20 16:30 33.871706 -117.979340 170 92ft 0kts
19-Apr-20 16:31 33.871657 -117.979327 169 92ft 4kts
19-Apr-20 16:32 33.870717 -117.978508 82 93ft 11kts
19-Apr-20 16:33 33.871154 -117.976777 336 95ft 5kts
19-Apr-20 16:34 33.871203 -117.976833 166 95ft 0kts
19-Apr-20 16:35 33.871203 -117.976833 166 95ft 0kts
19-Apr-20 16:36 33.871203 -117.976833 166 95ft 0kts
19-Apr-20 16:37 33.871203 -117.976833 166 95ft 0kts
19-Apr-20 16:38 33.871203 -117.976833 166 95ft 0kts
19-Apr-20 16:39 33.871203 -117.976833 166 95ft 0kts
19-Apr-20 16:40 33.871203 -117.976833 166 95ft 0kts
19-Apr-20 16:41 33.871203 -117.976833 166 95ft 0kts
19-Apr-20 16:42 33.871203 -117.976833 166 95ft 0kts
19-Apr-20 16:43 33.871203 -117.976833 166 95ft 0kts
19-Apr-20 16:44 33.871203 -117.976833 166 95ft 0kts
19-Apr-20 16:45 33.871203 -117.976833 166 95ft 0kts

Navigation Log

Ident Type
Flight plan parsing failed, navigation log unavailable